Time;durP1;ratioP1;P1;durP2;ratioP2;P2;SDS_P1;SDS_P2;PMS_P1;PMS_P2;Temp;Humidity;BMP_temperature;BMP_pressure;BME280_temperature;BME280_humidity;BME280_pressure;Samples;Min_cycle;Max_cycle;Signal;HPM_P1;HPM_P2
2021/12/16 00:03:56;;;;;;;64.80;41.70;;;9.60;99.90;;;;;;5019576;28;20465;-70
2021/12/16 00:09:31;;;;;;;64.30;44.03;;;9.50;99.90;;;;;;5019836;28;21412;-74
2021/12/16 00:31:32;;;;;;;65.17;40.90;;;9.60;99.90;;;;;;5018385;28;20959;-70
2021/12/16 00:34:02;;;;;;;63.07;41.03;;;9.50;99.90;;;;;;5022416;28;20475;-74
2021/12/16 00:36:33;;;;;;;59.97;41.37;;;9.50;99.90;;;;;;5026483;28;20463;-70
2021/12/16 00:39:04;;;;;;;59.30;40.63;;;9.50;99.90;;;;;;5020791;28;20473;-70
2021/12/16 00:41:31;;;;;;;62.83;41.13;;;9.60;99.90;;;;;;5017480;28;20477;-70
2021/12/16 00:44:05;;;;;;;57.27;40.13;;;9.60;99.90;;;;;;5019960;28;20491;-73
2021/12/16 00:46:57;;;;;;;60.47;39.77;;;9.50;99.90;;;;;;5020055;28;20465;-70
2021/12/16 00:49:37;;;;;;;64.73;41.10;;;9.50;99.90;;;;;;5021351;28;20463;-71
2021/12/16 00:55:11;;;;;;;65.67;43.07;;;9.30;99.90;;;;;;5016478;28;21348;-70
2021/12/16 00:57:38;;;;;;;68.30;42.30;;;9.40;99.90;;;;;;5015384;28;20468;-70
2021/12/16 01:00:10;;;;;;;60.00;40.37;;;9.40;99.90;;;;;;5016292;28;20457;-70
2021/12/16 01:02:53;;;;;;;69.33;41.03;;;9.50;99.90;;;;;;5027714;28;21089;-71
2021/12/16 01:08:45;;;;;;;74.63;43.27;;;9.50;99.90;;;;;;5019449;28;20464;-72
2021/12/16 01:36:52;;;;;;;61.83;41.03;;;9.30;99.90;;;;;;5012722;28;20881;-71
2021/12/16 01:42:27;;;;;;;61.03;39.87;;;9.40;99.90;;;;;;5024393;28;20491;-71
2021/12/16 01:48:04;;;;;;;62.03;40.73;;;9.40;99.90;;;;;;5023179;28;20650;-71
2021/12/16 01:50:34;;;;;;;70.40;39.57;;;9.40;99.90;;;;;;5018608;28;20474;-70
2021/12/16 01:53:15;;;;;;;62.37;41.57;;;9.30;99.90;;;;;;5013496;28;21010;-70
2021/12/16 01:55:51;;;;;;;64.77;41.80;;;9.30;99.90;;;;;;5017468;28;20487;-70
2021/12/16 01:58:21;;;;;;;64.90;40.17;;;9.30;99.90;;;;;;5009893;28;20553;-72
2021/12/16 02:00:57;;;;;;;65.80;42.63;;;9.30;99.90;;;;;;5018227;28;20548;-73
2021/12/16 02:03:37;;;;;;;68.07;42.73;;;9.30;99.90;;;;;;5018340;28;20465;-70
2021/12/16 02:06:11;;;;;;;66.70;40.87;;;9.30;99.90;;;;;;5016649;28;20494;-74
2021/12/16 02:08:39;;;;;;;69.47;42.33;;;9.30;99.90;;;;;;5015185;28;20469;-71
2021/12/16 02:11:23;;;;;;;67.37;42.47;;;9.30;99.90;;;;;;5016778;28;20478;-73
2021/12/16 02:28:13;;;;;;;63.87;42.53;;;9.50;99.90;;;;;;4977988;28;20606;-70
2021/12/16 02:36:36;;;;;;;57.60;39.07;;;9.40;99.90;;;;;;5019223;28;20467;-72
2021/12/16 02:39:08;;;;;;;59.90;41.97;;;9.40;99.90;;;;;;5020809;28;20876;-71
2021/12/16 02:41:38;;;;;;;58.70;40.23;;;9.40;99.90;;;;;;5016636;28;20488;-69
2021/12/16 02:44:17;;;;;;;60.50;40.40;;;9.40;99.90;;;;;;5014996;28;20516;-73
2021/12/16 02:49:32;;;;;;;68.23;40.90;;;9.30;99.90;;;;;;5017967;28;20499;-71
2021/12/16 02:51:59;;;;;;;67.97;44.23;;;9.30;99.90;;;;;;5019611;28;21283;-73
2021/12/16 02:54:28;;;;;;;69.87;41.67;;;9.30;99.90;;;;;;5014338;28;20483;-70
2021/12/16 02:56:57;;;;;;;68.63;43.53;;;9.40;99.90;;;;;;5015663;28;20505;-69
2021/12/16 02:59:27;;;;;;;62.80;44.03;;;9.40;99.90;;;;;;5009793;28;20469;-70
2021/12/16 03:01:57;;;;;;;60.80;40.27;;;9.30;99.90;;;;;;5018771;28;20515;-70
2021/12/16 03:04:27;;;;;;;64.73;41.13;;;9.30;99.90;;;;;;5010963;28;20467;-70
2021/12/16 03:06:57;;;;;;;66.03;43.60;;;9.30;99.90;;;;;;5015751;28;20483;-69
2021/12/16 03:09:45;;;;;;;71.93;43.90;;;9.30;99.90;;;;;;5017756;28;20570;-71
2021/12/16 03:12:43;;;;;;;62.80;42.70;;;9.30;99.90;;;;;;5013881;28;20457;-71
2021/12/16 03:15:22;;;;;;;71.50;43.43;;;9.30;99.90;;;;;;5017542;28;20503;-72
2021/12/16 03:17:56;;;;;;;66.73;41.30;;;9.40;99.90;;;;;;5012060;28;20470;-70
2021/12/16 03:20:33;;;;;;;63.60;42.10;;;9.40;99.90;;;;;;5013343;28;20470;-70
2021/12/16 03:23:14;;;;;;;58.80;43.20;;;9.40;99.90;;;;;;5011756;28;20550;-71
2021/12/16 03:25:55;;;;;;;60.77;41.27;;;9.40;99.90;;;;;;5016995;28;20465;-71
2021/12/16 03:28:52;;;;;;;63.77;41.67;;;9.40;99.90;;;;;;5020607;28;20473;-74
2021/12/16 03:34:29;;;;;;;67.93;43.33;;;9.40;99.90;;;;;;5007489;28;20471;-71
2021/12/16 03:37:15;;;;;;;68.90;41.50;;;9.30;99.90;;;;;;5018510;28;20565;-70
2021/12/16 03:39:45;;;;;;;66.73;44.43;;;9.30;99.90;;;;;;5011431;28;20544;-75
2021/12/16 03:42:12;;;;;;;70.73;45.13;;;9.30;99.90;;;;;;5017777;28;20504;-71
2021/12/16 03:44:53;;;;;;;68.27;41.83;;;9.20;99.90;;;;;;5016283;28;20476;-69
2021/12/16 03:47:22;;;;;;;63.87;42.20;;;9.20;99.90;;;;;;5011205;28;20467;-70
2021/12/16 03:49:50;;;;;;;54.53;41.80;;;9.20;99.90;;;;;;5011805;28;20468;-70
2021/12/16 03:52:18;;;;;;;72.07;44.93;;;9.30;99.90;;;;;;5015397;28;20591;-70
2021/12/16 03:54:49;;;;;;;66.13;43.63;;;9.30;99.90;;;;;;5019235;28;20462;-74
2021/12/16 03:57:19;;;;;;;70.47;43.17;;;9.40;99.90;;;;;;5015241;28;20577;-72
2021/12/16 03:59:49;;;;;;;67.13;43.10;;;9.40;99.90;;;;;;5018763;28;21213;-70
2021/12/16 04:02:20;;;;;;;60.80;43.77;;;9.40;99.90;;;;;;5016428;28;20490;-70
2021/12/16 04:04:48;;;;;;;65.17;43.10;;;9.30;99.90;;;;;;5020425;28;20479;-70
2021/12/16 04:07:15;;;;;;;67.60;45.33;;;9.30;99.90;;;;;;5017627;28;21156;-72
2021/12/16 04:09:43;;;;;;;62.87;42.63;;;9.40;99.90;;;;;;5023301;28;20458;-73
2021/12/16 04:12:13;;;;;;;66.00;43.50;;;9.40;99.90;;;;;;5008062;28;20514;-71
2021/12/16 04:14:41;;;;;;;61.27;40.60;;;9.40;99.90;;;;;;5021108;28;20482;-70
2021/12/16 04:17:12;;;;;;;65.47;44.80;;;9.30;99.90;;;;;;5014471;28;21069;-70
2021/12/16 04:19:39;;;;;;;66.37;43.20;;;9.30;99.90;;;;;;5024862;28;20471;-72
2021/12/16 04:22:11;;;;;;;61.90;42.17;;;9.20;99.90;;;;;;5019588;28;20956;-75
2021/12/16 04:24:40;;;;;;;70.40;45.10;;;9.20;99.90;;;;;;5020919;28;20548;-74
2021/12/16 04:27:08;;;;;;;66.80;43.33;;;9.20;99.90;;;;;;5017244;28;20552;-70
2021/12/16 04:29:35;;;;;;;66.00;43.10;;;9.20;99.90;;;;;;5017160;28;20476;-73
2021/12/16 04:32:04;;;;;;;58.73;42.80;;;9.20;99.90;;;;;;5019601;28;20859;-71
2021/12/16 04:34:32;;;;;;;69.43;42.63;;;9.30;99.90;;;;;;5015339;28;20484;-71
2021/12/16 04:37:00;;;;;;;73.33;45.53;;;9.20;99.90;;;;;;5022450;28;20566;-73
2021/12/16 04:39:30;;;;;;;73.93;45.10;;;9.20;99.90;;;;;;5017209;28;20496;-72
2021/12/16 04:41:58;;;;;;;70.47;43.10;;;9.20;99.90;;;;;;5016877;28;20481;-71
2021/12/16 04:44:27;;;;;;;67.37;42.83;;;9.10;99.90;;;;;;5016920;28;20574;-71
2021/12/16 04:46:55;;;;;;;70.60;45.77;;;9.00;99.90;;;;;;5014389;28;20476;-71
2021/12/16 04:49:22;;;;;;;61.80;45.40;;;9.00;99.90;;;;;;5019777;28;20470;-74
2021/12/16 04:51:54;;;;;;;65.53;44.90;;;8.90;99.90;;;;;;5021879;28;20476;-71
2021/12/16 04:54:23;;;;;;;68.53;45.03;;;8.90;99.90;;;;;;5019870;28;20894;-70
2021/12/16 04:56:52;;;;;;;67.83;45.43;;;8.80;99.90;;;;;;5018979;28;20460;-70
2021/12/16 04:59:21;;;;;;;80.60;46.43;;;8.70;99.90;;;;;;5015181;28;20463;-71
2021/12/16 05:01:52;;;;;;;72.20;45.07;;;8.60;99.90;;;;;;5011711;28;21188;-70
2021/12/16 05:04:20;;;;;;;74.40;46.20;;;8.50;99.90;;;;;;5022329;28;20463;-70
2021/12/16 05:06:47;;;;;;;80.00;43.20;;;8.50;99.90;;;;;;5019576;28;20469;-73
2021/12/16 05:09:41;;;;;;;70.33;45.43;;;8.50;99.90;;;;;;5018917;28;21386;-71
2021/12/16 05:12:04;;;;;;;62.43;44.70;;;8.50;99.90;;;;;;5018856;28;20591;-70
2021/12/16 05:14:30;;;;;;;65.00;45.20;;;8.40;99.90;;;;;;5017522;28;20468;-70
2021/12/16 05:16:58;;;;;;;70.70;46.73;;;8.30;99.90;;;;;;5019587;28;20470;-73
2021/12/16 05:19:25;;;;;;;68.37;45.13;;;8.30;99.90;;;;;;5021242;28;20988;-70
2021/12/16 05:21:57;;;;;;;63.90;44.47;;;8.20;99.90;;;;;;5017503;28;20468;-71
2021/12/16 05:24:27;;;;;;;93.67;47.30;;;8.10;99.90;;;;;;5021429;28;20494;-73
2021/12/16 05:26:57;;;;;;;77.63;45.53;;;8.10;99.90;;;;;;5017643;28;20485;-70
2021/12/16 05:29:24;;;;;;;69.90;46.43;;;8.10;99.90;;;;;;5013651;28;20468;-73
2021/12/16 05:31:52;;;;;;;79.47;50.60;;;8.10;99.90;;;;;;5024093;28;20493;-71
2021/12/16 05:34:19;;;;;;;85.57;52.83;;;8.10;99.90;;;;;;5020323;28;20504;-71
2021/12/16 05:36:46;;;;;;;99.43;58.27;;;8.10;99.90;;;;;;5021113;28;20466;-70
2021/12/16 05:39:14;;;;;;;106.77;65.33;;;8.00;99.90;;;;;;5013747;28;20462;-73
2021/12/16 05:41:43;;;;;;;99.13;60.50;;;8.00;99.90;;;;;;5020520;28;20816;-70
2021/12/16 05:44:10;;;;;;;99.23;60.93;;;8.00;99.90;;;;;;5016919;28;20492;-70
2021/12/16 05:46:38;;;;;;;96.00;59.93;;;7.90;99.90;;;;;;5015913;28;21086;-73
2021/12/16 05:49:08;;;;;;;95.47;59.77;;;7.70;99.90;;;;;;5016509;28;20469;-71
2021/12/16 05:51:38;;;;;;;102.57;62.97;;;7.70;99.90;;;;;;5019494;28;20466;-70
2021/12/16 05:54:07;;;;;;;107.57;61.40;;;7.70;99.90;;;;;;5020329;28;20472;-73
2021/12/16 05:56:35;;;;;;;105.10;60.37;;;7.60;99.90;;;;;;5025749;28;20466;-70
2021/12/16 05:59:04;;;;;;;94.77;60.83;;;7.50;99.90;;;;;;5016761;28;20465;-70
2021/12/16 06:01:37;;;;;;;100.63;61.00;;;7.50;99.90;;;;;;5016628;28;20975;-70
2021/12/16 06:04:05;;;;;;;101.20;61.00;;;7.50;99.90;;;;;;5017488;28;20504;-72
2021/12/16 06:06:32;;;;;;;82.00;55.93;;;7.50;99.90;;;;;;5021025;28;21141;-73
2021/12/16 06:09:00;;;;;;;92.60;53.00;;;7.50;99.90;;;;;;5021188;28;20469;-70
2021/12/16 06:11:31;;;;;;;84.17;56.20;;;7.40;99.90;;;;;;5017752;28;20461;-72
2021/12/16 06:14:06;;;;;;;97.57;51.43;;;7.40;99.90;;;;;;5018229;28;20463;-70
2021/12/16 06:22:36;;;;;;;86.77;53.57;;;7.20;99.90;;;;;;5018576;28;20462;-70
2021/12/16 06:27:52;;;;;;;85.60;50.37;;;7.10;99.90;;;;;;5021295;28;20533;-70
2021/12/16 06:30:23;;;;;;;88.70;54.40;;;7.10;99.90;;;;;;5023092;28;20467;-70
2021/12/16 06:32:51;;;;;;;96.83;54.17;;;7.10;99.90;;;;;;5014998;28;20470;-71
2021/12/16 06:35:18;;;;;;;83.10;53.40;;;7.00;99.90;;;;;;5013008;28;20463;-73
2021/12/16 06:37:46;;;;;;;78.30;52.17;;;7.00;99.90;;;;;;5014995;28;20476;-70
2021/12/16 06:40:13;;;;;;;79.93;52.13;;;6.90;99.90;;;;;;5017175;28;22585;-70
2021/12/16 06:42:41;;;;;;;70.43;49.87;;;6.80;99.90;;;;;;5023693;28;20493;-70
2021/12/16 06:45:13;;;;;;;70.83;50.37;;;6.70;99.90;;;;;;5020572;28;20480;-72
2021/12/16 06:47:45;;;;;;;71.00;49.03;;;6.60;99.90;;;;;;5017049;28;20475;-72
2021/12/16 06:50:24;;;;;;;78.73;50.00;;;6.40;99.90;;;;;;5016463;28;20469;-71
2021/12/16 06:52:55;;;;;;;80.40;53.60;;;6.30;99.90;;;;;;5015838;28;21019;-70
2021/12/16 06:55:29;;;;;;;86.40;53.90;;;6.40;99.90;;;;;;5018623;28;20494;-69
2021/12/16 06:57:58;;;;;;;87.23;53.93;;;6.40;99.90;;;;;;5019636;28;20482;-72
2021/12/16 07:00:35;;;;;;;76.47;50.90;;;6.30;99.90;;;;;;5021149;28;20457;-69
2021/12/16 07:03:05;;;;;;;85.23;51.67;;;6.20;99.90;;;;;;5020795;28;20583;-69
2021/12/16 07:05:37;;;;;;;81.97;48.77;;;6.20;99.90;;;;;;5020506;28;20473;-69
2021/12/16 07:08:06;;;;;;;264.53;55.47;;;6.10;99.90;;;;;;5022261;28;20598;-71
2021/12/16 07:10:33;;;;;;;157.00;48.93;;;6.00;99.90;;;;;;5013639;28;20478;-69
2021/12/16 07:13:06;;;;;;;63.07;46.50;;;6.00;99.90;;;;;;5019909;28;20471;-69
2021/12/16 07:15:34;;;;;;;66.33;49.20;;;5.90;99.90;;;;;;5017866;28;20465;-69
2021/12/16 07:18:01;;;;;;;71.13;48.70;;;5.90;99.90;;;;;;5016722;28;20464;-72
2021/12/16 07:20:32;;;;;;;81.33;52.30;;;5.90;99.90;;;;;;5014175;28;20466;-69
2021/12/16 07:23:01;;;;;;;79.30;52.23;;;5.80;99.90;;;;;;5012168;28;20588;-69
2021/12/16 07:25:29;;;;;;;76.30;51.43;;;5.80;99.90;;;;;;5008917;28;21072;-69
2021/12/16 07:27:56;;;;;;;76.03;51.97;;;5.80;99.90;;;;;;5016777;28;20546;-69
2021/12/16 07:30:24;;;;;;;74.63;50.27;;;5.80;99.90;;;;;;5016742;28;20636;-71
2021/12/16 07:32:52;;;;;;;69.27;50.30;;;5.90;99.90;;;;;;5019896;28;20472;-68
2021/12/16 07:35:21;;;;;;;67.23;48.60;;;5.90;99.90;;;;;;5016059;28;20468;-70
2021/12/16 07:37:49;;;;;;;60.60;48.50;;;5.90;99.90;;;;;;5021064;28;20475;-69
2021/12/16 07:40:20;;;;;;;76.30;50.40;;;5.90;99.90;;;;;;5017198;28;20487;-69
2021/12/16 07:42:58;;;;;;;66.40;49.17;;;5.80;99.90;;;;;;5016261;28;20492;-70
2021/12/16 07:45:26;;;;;;;81.33;55.63;;;5.80;99.90;;;;;;5023819;28;20480;-68
2021/12/16 07:47:53;;;;;;;67.57;47.73;;;5.90;99.90;;;;;;5021262;28;20544;-70
2021/12/16 07:50:20;;;;;;;70.70;45.60;;;5.90;99.90;;;;;;5019512;28;20461;-71
2021/12/16 07:52:47;;;;;;;61.30;47.10;;;6.00;99.90;;;;;;5022685;28;20854;-68
2021/12/16 07:55:15;;;;;;;53.23;45.40;;;6.00;99.90;;;;;;5022985;28;20515;-69
2021/12/16 07:57:43;;;;;;;62.60;46.20;;;6.10;99.90;;;;;;5016649;28;20454;-70
2021/12/16 08:00:14;;;;;;;53.50;44.37;;;6.20;99.90;;;;;;5020740;28;20464;-68
2021/12/16 08:02:41;;;;;;;50.10;42.17;;;6.20;99.90;;;;;;5022379;28;20543;-71
2021/12/16 08:05:10;;;;;;;78.40;49.07;;;6.30;99.90;;;;;;5020294;28;20460;-69
2021/12/16 08:07:39;;;;;;;55.80;45.33;;;6.40;99.90;;;;;;5019309;28;20469;-69
2021/12/16 08:10:09;;;;;;;62.63;48.20;;;6.40;99.90;;;;;;5018396;28;20480;-69
2021/12/16 08:12:36;;;;;;;49.13;42.83;;;6.50;99.90;;;;;;5021976;28;20461;-69
2021/12/16 08:15:07;;;;;;;113.23;60.80;;;6.50;99.90;;;;;;5018873;28;20468;-70
2021/12/16 08:17:34;;;;;;;75.20;50.60;;;6.60;99.90;;;;;;5012813;28;20547;-69
2021/12/16 08:20:01;;;;;;;58.27;47.30;;;6.60;99.90;;;;;;5021682;28;20464;-69
2021/12/16 08:22:28;;;;;;;59.73;45.33;;;6.70;99.90;;;;;;5023071;28;20502;-69
2021/12/16 08:24:55;;;;;;;51.23;45.30;;;6.70;99.90;;;;;;5018608;28;20492;-69
2021/12/16 08:27:21;;;;;;;73.07;49.30;;;6.70;99.90;;;;;;5014584;28;20480;-69
2021/12/16 08:29:48;;;;;;;314.63;60.80;;;6.60;99.90;;;;;;5021178;28;20468;-71
2021/12/16 08:32:17;;;;;;;63.20;44.73;;;6.50;99.90;;;;;;5024511;28;20473;-69
2021/12/16 08:34:45;;;;;;;139.90;53.80;;;6.50;99.90;;;;;;5024847;28;20528;-71
2021/12/16 08:37:14;;;;;;;276.50;62.17;;;6.40;99.90;;;;;;5018849;28;20545;-68
2021/12/16 08:39:43;;;;;;;402.37;57.03;;;6.40;99.90;;;;;;5022306;28;20498;-68
2021/12/16 08:42:12;;;;;;;310.80;63.50;;;6.30;99.90;;;;;;5021162;28;20579;-69
2021/12/16 08:44:39;;;;;;;480.30;60.43;;;6.30;99.90;;;;;;5017075;28;21454;-71
2021/12/16 08:47:10;;;;;;;318.60;57.57;;;6.20;99.90;;;;;;5020482;28;20476;-70
2021/12/16 08:49:40;;;;;;;228.57;53.67;;;6.30;99.90;;;;;;5021647;28;20480;-69
2021/12/16 08:52:10;;;;;;;389.23;59.80;;;6.40;99.90;;;;;;5024087;28;20485;-69
2021/12/16 08:54:37;;;;;;;243.80;53.20;;;6.60;99.90;;;;;;5017916;28;20460;-70
2021/12/16 08:57:05;;;;;;;92.47;50.17;;;6.60;99.90;;;;;;5017580;28;20469;-71
2021/12/16 08:59:32;;;;;;;94.63;50.83;;;6.70;99.90;;;;;;5015373;28;20790;-68
2021/12/16 09:02:00;;;;;;;79.57;51.57;;;6.80;99.90;;;;;;5012532;28;20472;-68
2021/12/16 09:04:28;;;;;;;69.03;48.20;;;6.90;99.90;;;;;;5021924;28;20574;-70
2021/12/16 09:07:00;;;;;;;66.70;50.67;;;6.90;99.90;;;;;;5025404;28;20465;-68
2021/12/16 09:09:32;;;;;;;69.37;53.43;;;6.80;99.90;;;;;;5017862;28;20475;-69
2021/12/16 09:12:09;;;;;;;75.97;52.40;;;6.90;99.90;;;;;;5020243;28;20552;-68
2021/12/16 09:14:37;;;;;;;71.07;48.40;;;7.00;99.90;;;;;;5016165;28;20614;-71
2021/12/16 09:17:09;;;;;;;79.73;52.97;;;7.00;99.90;;;;;;5021950;28;20472;-69
2021/12/16 09:19:37;;;;;;;83.17;52.63;;;7.20;99.90;;;;;;5019034;28;20471;-70
2021/12/16 09:22:05;;;;;;;89.37;50.70;;;7.20;99.90;;;;;;5019365;28;20475;-68
2021/12/16 09:24:32;;;;;;;84.03;52.80;;;7.20;99.90;;;;;;5020659;28;20484;-70
2021/12/16 09:27:00;;;;;;;89.07;55.50;;;7.30;99.90;;;;;;5023045;28;20463;-69
2021/12/16 09:29:27;;;;;;;81.27;55.50;;;7.30;99.90;;;;;;5018320;28;20526;-69
2021/12/16 09:31:54;;;;;;;81.07;56.10;;;7.40;99.90;;;;;;5022604;28;20459;-68
2021/12/16 09:34:21;;;;;;;89.83;57.37;;;7.50;99.90;;;;;;5021110;28;20817;-70
2021/12/16 09:36:48;;;;;;;85.80;54.77;;;7.60;99.90;;;;;;5025699;28;20491;-68
2021/12/16 09:39:21;;;;;;;82.10;55.63;;;7.70;99.90;;;;;;5021402;28;20474;-69
2021/12/16 09:41:51;;;;;;;78.40;53.90;;;7.80;99.90;;;;;;5016410;28;20465;-68
2021/12/16 09:44:18;;;;;;;77.33;52.77;;;7.80;99.90;;;;;;5016011;28;20502;-69
2021/12/16 09:46:48;;;;;;;72.87;53.70;;;7.90;99.90;;;;;;5021911;28;20452;-69
2021/12/16 09:49:15;;;;;;;86.00;55.23;;;7.90;99.90;;;;;;5024391;28;20452;-68
2021/12/16 09:51:45;;;;;;;86.13;58.03;;;8.00;99.90;;;;;;5020981;28;20468;-68
2021/12/16 09:54:14;;;;;;;82.30;55.43;;;8.10;99.90;;;;;;5021206;28;20483;-68
2021/12/16 09:56:44;;;;;;;79.57;55.03;;;8.20;99.90;;;;;;5020781;28;20465;-68
2021/12/16 09:59:14;;;;;;;77.40;53.17;;;8.30;99.90;;;;;;5015044;28;20464;-68
2021/12/16 10:01:42;;;;;;;76.87;54.80;;;8.40;99.90;;;;;;5022690;28;20814;-68
2021/12/16 10:04:13;;;;;;;92.30;54.97;;;8.50;99.90;;;;;;5017557;28;20482;-68
2021/12/16 10:06:41;;;;;;;88.97;55.60;;;8.60;99.90;;;;;;5018074;28;20468;-71
2021/12/16 10:09:09;;;;;;;87.87;56.80;;;8.80;99.90;;;;;;5013489;28;20465;-69
2021/12/16 10:11:40;;;;;;;95.60;61.77;;;8.90;99.90;;;;;;5017641;28;20464;-71
2021/12/16 10:14:20;;;;;;;97.63;63.23;;;9.10;99.90;;;;;;5018290;28;20578;-71
2021/12/16 10:19:35;;;;;;;100.10;60.97;;;9.30;99.90;;;;;;5018523;28;20839;-68
2021/12/16 10:22:19;;;;;;;82.20;58.00;;;9.40;99.90;;;;;;5015428;28;20521;-71
2021/12/16 10:24:47;;;;;;;82.70;55.27;;;9.40;99.90;;;;;;5016554;28;20493;-67
2021/12/16 10:27:17;;;;;;;89.93;58.60;;;9.60;99.90;;;;;;5015500;28;20469;-68
2021/12/16 10:29:48;;;;;;;96.50;55.83;;;9.70;99.90;;;;;;5018689;28;20790;-69
2021/12/16 10:32:40;;;;;;;94.63;60.43;;;9.80;99.90;;;;;;5023050;28;20860;-68
2021/12/16 10:35:12;;;;;;;92.20;55.40;;;9.90;99.90;;;;;;5013832;28;20977;-68
2021/12/16 10:37:41;;;;;;;88.40;59.27;;;9.90;99.90;;;;;;5018725;28;20468;-68
2021/12/16 10:40:32;;;;;;;86.87;59.30;;;10.00;99.90;;;;;;5021735;28;20468;-69
2021/12/16 10:43:01;;;;;;;88.23;60.77;;;10.10;99.90;;;;;;5012936;28;20466;-69
2021/12/16 10:45:32;;;;;;;82.23;56.37;;;10.00;99.90;;;;;;5020790;28;20521;-71
2021/12/16 10:48:12;;;;;;;85.93;58.20;;;10.00;99.90;;;;;;5019252;28;20577;-69
2021/12/16 10:50:56;;;;;;;86.53;57.43;;;10.20;99.90;;;;;;5013834;28;20469;-68
2021/12/16 10:54:08;;;;;;;87.17;55.77;;;10.40;99.90;;;;;;5013345;28;20484;-68
2021/12/16 10:56:41;;;;;;;88.57;56.60;;;10.60;99.90;;;;;;4953839;28;20526;-70
2021/12/16 10:59:13;;;;;;;80.43;53.60;;;10.80;99.90;;;;;;4958669;28;20463;-68
2021/12/16 11:02:07;;;;;;;93.93;56.37;;;10.90;99.90;;;;;;5001963;28;20861;-69
2021/12/16 11:04:39;;;;;;;84.77;53.80;;;11.00;99.90;;;;;;5016769;28;20886;-69
2021/12/16 11:07:16;;;;;;;93.07;57.50;;;11.00;99.90;;;;;;5015830;28;20468;-68
2021/12/16 11:09:51;;;;;;;81.47;54.87;;;11.00;99.90;;;;;;5014896;28;20509;-69
2021/12/16 11:12:41;;;;;;;87.30;54.10;;;11.10;99.90;;;;;;5015261;28;20907;-71
2021/12/16 11:15:13;;;;;;;84.83;56.67;;;11.10;99.90;;;;;;5012343;28;20468;-70
2021/12/16 11:17:43;;;;;;;92.03;54.90;;;11.30;99.90;;;;;;5021253;28;20453;-68
2021/12/16 11:20:19;;;;;;;82.87;55.27;;;11.30;99.90;;;;;;5019822;28;20461;-71
2021/12/16 11:22:48;;;;;;;65.80;51.93;;;11.40;99.90;;;;;;5013700;28;20473;-69
2021/12/16 11:25:22;;;;;;;75.23;53.90;;;11.50;99.90;;;;;;5020237;28;20511;-72
2021/12/16 11:27:53;;;;;;;75.47;52.83;;;11.60;99.90;;;;;;5016665;28;20464;-69
2021/12/16 11:30:29;;;;;;;78.17;50.50;;;11.50;99.90;;;;;;5016093;28;20468;-71
2021/12/16 11:33:06;;;;;;;64.90;49.80;;;11.60;99.90;;;;;;5019046;28;20790;-71
2021/12/16 11:35:40;;;;;;;69.40;49.70;;;11.80;99.90;;;;;;5013542;28;20955;-69
2021/12/16 11:38:14;;;;;;;70.67;48.93;;;12.00;99.90;;;;;;5008315;28;20472;-69
2021/12/16 11:41:02;;;;;;;64.77;46.67;;;12.10;99.90;;;;;;5017550;28;20828;-69
2021/12/16 11:43:39;;;;;;;58.67;46.83;;;12.10;99.90;;;;;;5014580;28;20480;-69
2021/12/16 11:46:12;;;;;;;60.77;45.90;;;12.00;99.90;;;;;;5019404;28;20543;-70
2021/12/16 11:48:41;;;;;;;68.07;48.90;;;11.80;99.90;;;;;;5018857;28;20835;-69
2021/12/16 11:51:11;;;;;;;77.57;49.87;;;11.70;99.90;;;;;;5013966;28;20526;-69
2021/12/16 11:53:42;;;;;;;71.07;46.33;;;11.90;99.90;;;;;;5013061;28;20503;-69
2021/12/16 11:56:11;;;;;;;68.03;47.73;;;11.90;99.90;;;;;;5017476;28;20461;-69
2021/12/16 11:58:41;;;;;;;71.03;50.40;;;11.70;99.90;;;;;;5020774;28;20468;-73
2021/12/16 12:01:15;;;;;;;65.53;49.27;;;11.60;99.90;;;;;;5021203;28;20897;-69
2021/12/16 12:03:44;;;;;;;84.93;50.80;;;11.80;99.90;;;;;;5012762;28;20458;-71
2021/12/16 12:06:24;;;;;;;65.23;47.77;;;12.00;99.90;;;;;;5020063;28;20831;-69
2021/12/16 12:08:53;;;;;;;64.03;48.63;;;12.00;99.90;;;;;;5013632;28;20473;-71
2021/12/16 12:11:23;;;;;;;66.13;49.33;;;12.00;99.90;;;;;;5018452;28;20473;-70
2021/12/16 12:13:54;;;;;;;62.67;45.90;;;12.10;99.90;;;;;;5017804;28;20476;-70
2021/12/16 12:16:22;;;;;;;67.00;50.47;;;12.20;99.90;;;;;;5015936;28;21019;-70
2021/12/16 12:18:54;;;;;;;62.63;47.60;;;12.20;99.90;;;;;;5013569;28;20464;-72
2021/12/16 12:21:32;;;;;;;58.47;46.17;;;12.30;99.90;;;;;;5015969;28;20471;-69
2021/12/16 12:24:01;;;;;;;62.47;47.03;;;12.40;99.90;;;;;;5019691;28;20913;-69
2021/12/16 12:26:31;;;;;;;62.40;47.87;;;12.40;99.90;;;;;;5021057;28;20468;-71
2021/12/16 12:29:02;;;;;;;61.10;45.60;;;12.40;99.90;;;;;;5021153;28;20467;-69
2021/12/16 12:31:33;;;;;;;64.93;45.70;;;12.50;99.90;;;;;;5020506;28;20797;-69
2021/12/16 12:34:02;;;;;;;57.40;46.50;;;12.60;99.90;;;;;;5026740;28;20460;-73
2021/12/16 12:36:29;;;;;;;65.97;46.70;;;12.60;99.90;;;;;;5021621;28;20471;-72
2021/12/16 12:38:57;;;;;;;57.20;47.03;;;12.60;99.90;;;;;;5020636;28;20461;-70
2021/12/16 12:41:25;;;;;;;60.93;47.13;;;12.40;99.90;;;;;;5022706;28;21118;-72
2021/12/16 12:43:52;;;;;;;63.57;47.57;;;12.30;99.90;;;;;;5021249;28;20891;-71
2021/12/16 12:46:20;;;;;;;59.13;46.90;;;12.20;99.90;;;;;;5023156;28;20488;-70
2021/12/16 12:48:49;;;;;;;68.90;45.00;;;12.40;99.90;;;;;;5019040;28;20461;-70
2021/12/16 12:51:18;;;;;;;64.33;45.07;;;12.70;99.90;;;;;;5017509;28;20554;-70
2021/12/16 12:53:50;;;;;;;57.30;42.47;;;12.80;99.90;;;;;;5016190;28;20497;-70
2021/12/16 12:56:19;;;;;;;53.33;42.30;;;12.90;99.90;;;;;;5011806;28;20979;-69
2021/12/16 12:58:53;;;;;;;59.53;44.00;;;13.40;99.90;;;;;;5021093;28;20503;-70
2021/12/16 13:01:35;;;;;;;53.43;39.50;;;13.80;99.90;;;;;;5016037;28;20465;-72
2021/12/16 13:04:05;;;;;;;51.33;39.87;;;14.00;99.90;;;;;;5017395;28;20461;-72
2021/12/16 13:06:53;;;;;;;46.67;40.93;;;14.30;99.90;;;;;;5022032;28;20467;-69
2021/12/16 13:09:26;;;;;;;53.83;40.63;;;14.60;99.90;;;;;;5021496;28;20460;-69
2021/12/16 13:11:53;;;;;;;52.23;39.60;;;14.80;99.90;;;;;;5018222;28;20907;-69
2021/12/16 13:14:25;;;;;;;50.40;38.17;;;15.00;99.90;;;;;;5013757;28;20997;-71
2021/12/16 13:17:17;;;;;;;49.87;38.53;;;15.00;99.90;;;;;;5017268;28;20471;-70
2021/12/16 13:28:27;;;;;;;53.80;39.60;;;13.90;99.90;;;;;;5018568;28;20838;-71
2021/12/16 13:31:00;;;;;;;53.10;37.97;;;13.70;99.90;;;;;;5023842;28;20461;-69
2021/12/16 13:33:39;;;;;;;47.93;38.53;;;13.60;99.90;;;;;;5022875;28;20515;-70
2021/12/16 13:36:16;;;;;;;48.93;39.50;;;13.60;99.90;;;;;;5023630;28;20475;-70
2021/12/16 13:38:47;;;;;;;52.13;39.03;;;13.50;99.90;;;;;;5019267;28;21259;-70
2021/12/16 13:41:18;;;;;;;52.60;39.43;;;13.40;99.90;;;;;;5019649;28;20469;-71
2021/12/16 13:43:58;;;;;;;53.07;40.10;;;13.60;99.90;;;;;;5018784;28;20854;-70
2021/12/16 13:46:36;;;;;;;49.40;38.40;;;13.70;99.90;;;;;;5019874;28;20593;-70
2021/12/16 13:58:12;;;;;;;53.40;41.30;;;13.70;99.90;;;;;;5016790;28;20460;-71
2021/12/16 14:01:11;;;;;;;56.67;38.77;;;14.00;99.90;;;;;;5019139;28;20895;-71
2021/12/16 14:03:50;;;;;;;45.10;37.00;;;14.00;99.90;;;;;;5020518;28;20473;-70
2021/12/16 14:06:37;;;;;;;42.30;36.03;;;13.70;99.90;;;;;;5020480;28;20915;-72
2021/12/16 14:09:15;;;;;;;44.83;36.90;;;13.90;99.90;;;;;;5016016;28;20464;-73
2021/12/16 14:15:10;;;;;;;47.20;37.10;;;13.70;99.90;;;;;;5010407;28;20827;-70
2021/12/16 14:17:54;;;;;;;53.73;39.27;;;13.60;99.90;;;;;;5020455;28;20465;-69
2021/12/16 14:23:22;;;;;;;53.60;40.10;;;13.10;99.90;;;;;;5019447;28;20512;-72
2021/12/16 14:37:19;;;;;;;52.63;40.13;;;13.00;99.90;;;;;;5019349;28;20846;-70
2021/12/16 14:40:04;;;;;;;50.70;39.67;;;13.00;99.90;;;;;;5014320;28;20476;-69
2021/12/16 14:42:41;;;;;;;50.73;40.10;;;13.10;99.90;;;;;;5012861;28;20458;-72
2021/12/16 14:50:47;;;;;;;53.27;40.20;;;13.00;99.90;;;;;;5010824;28;20880;-70
2021/12/16 14:53:20;;;;;;;49.60;41.20;;;12.80;99.90;;;;;;5020234;28;20499;-70
2021/12/16 14:55:51;;;;;;;48.00;40.13;;;12.60;99.90;;;;;;5017020;28;20466;-70
2021/12/16 14:58:20;;;;;;;55.57;41.13;;;12.50;99.90;;;;;;5016986;28;20530;-69
2021/12/16 15:00:53;;;;;;;60.43;44.70;;;12.40;99.90;;;;;;5017755;28;20468;-70
2021/12/16 15:03:23;;;;;;;50.93;41.80;;;12.20;99.90;;;;;;5013434;28;20650;-72
2021/12/16 15:05:53;;;;;;;53.50;42.90;;;12.20;99.90;;;;;;5015398;28;20501;-70
2021/12/16 15:08:27;;;;;;;53.00;42.10;;;12.10;99.90;;;;;;5018816;28;20476;-70
2021/12/16 15:10:55;;;;;;;59.97;43.30;;;12.00;99.90;;;;;;5017972;28;20890;-70
2021/12/16 15:13:28;;;;;;;58.00;42.70;;;11.90;99.90;;;;;;5015297;28;20464;-69
2021/12/16 15:16:21;;;;;;;62.67;43.17;;;11.80;99.90;;;;;;5021241;28;20460;-74
2021/12/16 15:40:59;;;;;;;63.80;46.03;;;11.50;99.90;;;;;;5021948;28;20456;-73